createdAt,value
2023-04-08T00:01:36.832Z,15.93
2023-04-08T00:04:04.686Z,13.55
2023-04-08T00:06:31.881Z,14.85
2023-04-08T00:08:59.263Z,14.60
2023-04-08T00:11:26.336Z,14.55
2023-04-08T00:13:53.681Z,16.33
2023-04-08T00:16:21.256Z,15.30
2023-04-08T00:18:49.559Z,13.70
2023-04-08T00:21:18.082Z,15.45
2023-04-08T00:23:45.494Z,16.50
2023-04-08T00:26:12.613Z,14.48
2023-04-08T00:28:42.706Z,15.65
2023-04-08T00:31:10.543Z,17.85
2023-04-08T00:33:38.115Z,15.00
2023-04-08T00:36:05.572Z,15.30
2023-04-08T00:38:32.918Z,16.08
2023-04-08T00:41:00.122Z,16.05
2023-04-08T00:43:27.667Z,14.93
2023-04-08T00:45:54.988Z,15.95
2023-04-08T00:48:22.373Z,15.70
2023-04-08T00:50:49.453Z,15.05
2023-04-08T00:53:20.366Z,19.08
2023-04-08T00:55:47.597Z,15.35
2023-04-08T00:58:15.245Z,17.88
2023-04-08T01:00:52.956Z,18.65
2023-04-08T01:03:59.679Z,16.00
2023-04-08T01:06:42.809Z,15.65
2023-04-08T01:09:11.620Z,13.85
2023-04-08T01:11:43.600Z,15.32
2023-04-08T01:14:15.358Z,16.20
2023-04-08T01:16:44.093Z,14.63
2023-04-08T01:19:24.455Z,14.27
2023-04-08T01:21:51.979Z,14.43
2023-04-08T01:24:31.502Z,14.85
2023-04-08T01:27:01.716Z,14.57
2023-04-08T01:29:30.823Z,15.32
2023-04-08T01:31:59.612Z,15.50
2023-04-08T01:34:29.794Z,16.73
2023-04-08T01:36:58.570Z,14.68
2023-04-08T01:39:26.838Z,13.00
2023-04-08T01:41:56.336Z,14.57
2023-04-08T01:44:27.235Z,15.77
2023-04-08T01:46:55.252Z,17.27
2023-04-08T01:49:25.070Z,16.25
2023-04-08T01:51:53.726Z,14.85
2023-04-08T01:54:21.268Z,17.17
2023-04-08T01:56:49.521Z,18.00
2023-04-08T01:59:19.354Z,17.48
2023-04-08T02:01:47.645Z,15.82
2023-04-08T02:04:15.723Z,15.23
2023-04-08T02:06:45.991Z,15.98
2023-04-08T02:09:14.225Z,16.20
2023-04-08T02:11:41.240Z,15.95
2023-04-08T02:14:08.863Z,16.65
2023-04-08T02:16:43.080Z,16.27
2023-04-08T02:19:19.172Z,17.23
2023-04-08T02:21:55.315Z,16.27
2023-04-08T02:24:22.903Z,16.17
2023-04-08T02:26:52.603Z,16.75
2023-04-08T02:29:20.063Z,17.70
2023-04-08T02:31:48.651Z,15.40
2023-04-08T02:34:17.789Z,16.10
2023-04-08T02:36:47.389Z,15.20
2023-04-08T02:39:14.871Z,17.45
2023-04-08T02:41:41.996Z,17.90
2023-04-08T02:44:10.341Z,16.83
2023-04-08T02:46:40.957Z,15.73
2023-04-08T02:49:08.317Z,16.60
2023-04-08T02:51:35.372Z,17.27
2023-04-08T02:54:02.750Z,17.05
2023-04-08T02:56:29.795Z,17.20
2023-04-08T02:58:57.387Z,16.63
2023-04-08T03:01:24.771Z,19.27
2023-04-08T03:03:52.264Z,17.42
2023-04-08T03:06:19.388Z,20.17
2023-04-08T03:08:46.719Z,21.17
2023-04-08T03:11:13.833Z,18.40
2023-04-08T03:13:41.095Z,16.83
2023-04-08T03:16:08.343Z,18.80
2023-04-08T03:18:35.673Z,18.60
2023-04-08T03:21:03.395Z,17.60
2023-04-08T03:23:31.022Z,19.75
2023-04-08T03:25:58.155Z,19.10
2023-04-08T03:28:25.432Z,19.33
2023-04-08T03:30:52.613Z,19.85
2023-04-08T03:33:20.830Z,18.75
2023-04-08T03:35:48.037Z,18.63
2023-04-08T03:38:15.730Z,18.48
2023-04-08T03:40:42.773Z,16.92
2023-04-08T03:43:11.804Z,20.67
2023-04-08T03:45:39.125Z,21.58
2023-04-08T03:48:06.840Z,22.05
2023-04-08T03:50:33.976Z,19.35
2023-04-08T03:53:01.348Z,23.30
2023-04-08T03:55:28.520Z,21.90
2023-04-08T03:57:55.930Z,19.45
2023-04-08T04:00:23.215Z,22.15
2023-04-08T04:02:50.900Z,20.33
2023-04-08T04:05:18.052Z,21.40
2023-04-08T04:07:45.327Z,20.13
2023-04-08T04:10:12.504Z,22.70
2023-04-08T04:12:39.939Z,20.40
2023-04-08T04:15:07.541Z,20.17
2023-04-08T04:17:34.897Z,21.30
2023-04-08T04:20:05.511Z,21.70
2023-04-08T04:22:32.867Z,19.58
2023-04-08T04:25:00.025Z,22.85
2023-04-08T04:27:27.384Z,20.08
2023-04-08T04:29:54.420Z,25.90
2023-04-08T04:32:21.816Z,21.90
2023-04-08T04:34:48.989Z,20.85
2023-04-08T04:37:16.364Z,22.85
2023-04-08T04:39:43.410Z,24.52
2023-04-08T04:42:10.757Z,26.58
2023-04-08T04:44:37.829Z,22.98
2023-04-08T04:47:05.690Z,22.92
2023-04-08T04:49:32.775Z,24.48
2023-04-08T04:52:00.122Z,25.63
2023-04-08T04:54:27.309Z,25.52
2023-04-08T04:56:54.682Z,25.17
2023-04-08T04:59:21.834Z,26.98
2023-04-08T05:01:49.216Z,26.80
2023-04-08T05:04:16.538Z,24.77
2023-04-08T05:06:43.901Z,23.30
2023-04-08T05:09:11.081Z,25.40
2023-04-08T05:11:38.432Z,26.20
2023-04-08T05:14:06.038Z,25.92
2023-04-08T05:16:34.230Z,25.08
2023-04-08T05:19:01.386Z,22.15
2023-04-08T05:21:28.732Z,21.63
2023-04-08T05:23:55.832Z,21.58
2023-04-08T05:26:23.965Z,22.58
2023-04-08T05:28:52.373Z,25.98
2023-04-08T05:31:20.806Z,22.77
2023-04-08T05:33:48.084Z,20.95
2023-04-08T05:36:15.474Z,25.85
2023-04-08T05:38:45.590Z,22.65
2023-04-08T05:41:13.230Z,28.05
2023-04-08T05:43:40.463Z,26.33
2023-04-08T05:46:09.312Z,26.00
2023-04-08T05:48:36.673Z,24.55
2023-04-08T05:51:04.095Z,30.73
2023-04-08T05:53:31.503Z,24.48
2023-04-08T05:55:58.899Z,28.25
2023-04-08T05:58:26.012Z,25.67
2023-04-08T06:00:55.653Z,27.80
2023-04-08T06:03:23.051Z,30.30
2023-04-08T06:05:50.506Z,29.10
2023-04-08T06:08:17.561Z,25.55
2023-04-08T06:10:51.847Z,36.80
2023-04-08T06:13:21.041Z,27.42
2023-04-08T06:15:51.816Z,26.00
2023-04-08T06:18:19.027Z,20.90
2023-04-08T06:20:46.533Z,21.42
2023-04-08T06:23:14.041Z,19.13
2023-04-08T06:25:42.165Z,21.25
2023-04-08T06:28:09.345Z,17.50
2023-04-08T06:30:36.778Z,21.48
2023-04-08T06:33:04.026Z,21.92
2023-04-08T06:35:32.333Z,18.50
2023-04-08T06:37:59.814Z,21.48
2023-04-08T06:40:27.199Z,17.77
2023-04-08T06:42:54.305Z,18.45
2023-04-08T06:45:32.951Z,17.70
2023-04-08T06:48:00.329Z,16.38
2023-04-08T06:50:27.977Z,17.63
2023-04-08T06:52:55.504Z,17.08
2023-04-08T06:55:22.862Z,15.82
2023-04-08T06:57:50.019Z,17.20
2023-04-08T07:00:17.587Z,18.25
2023-04-08T07:02:45.040Z,16.67
2023-04-08T07:05:12.515Z,20.77
2023-04-08T07:07:39.619Z,18.92
2023-04-08T07:10:09.654Z,19.70
2023-04-08T07:12:37.955Z,18.08
2023-04-08T07:15:06.246Z,18.60
2023-04-08T07:17:34.150Z,17.15
2023-04-08T07:20:01.849Z,19.88
2023-04-08T07:22:28.910Z,18.20
2023-04-08T07:24:56.359Z,15.15
2023-04-08T07:27:23.396Z,15.32
2023-04-08T07:29:54.700Z,16.75
2023-04-08T07:32:21.986Z,14.38
2023-04-08T07:34:49.353Z,14.45
2023-04-08T07:37:17.808Z,13.52
2023-04-08T07:39:45.454Z,15.57
2023-04-08T07:42:12.588Z,19.65
2023-04-08T07:44:40.393Z,15.02
2023-04-08T07:47:07.438Z,15.88
2023-04-08T07:49:34.749Z,15.05
2023-04-08T07:52:01.917Z,19.23
2023-04-08T07:54:31.823Z,14.05
2023-04-08T07:56:59.920Z,14.32
2023-04-08T07:59:27.545Z,15.63
2023-04-08T08:01:54.947Z,17.70
2023-04-08T08:04:25.832Z,13.85
2023-04-08T08:06:53.062Z,17.92
2023-04-08T08:09:20.776Z,16.20
2023-04-08T08:11:47.844Z,17.42
2023-04-08T08:14:15.779Z,15.85
2023-04-08T08:16:44.758Z,16.35
2023-04-08T08:19:13.930Z,14.18
2023-04-08T08:21:41.289Z,13.48
2023-04-08T08:24:09.072Z,16.17
2023-04-08T08:26:39.547Z,13.85
2023-04-08T08:29:08.948Z,14.50
2023-04-08T08:31:36.311Z,18.85
2023-04-08T08:34:03.809Z,13.43
2023-04-08T08:36:32.753Z,14.18
2023-04-08T08:39:02.022Z,13.70
2023-04-08T08:41:35.317Z,13.48
2023-04-08T08:44:05.512Z,13.90
2023-04-08T08:46:32.721Z,13.70
2023-04-08T08:49:00.328Z,15.63
2023-04-08T08:51:28.574Z,13.15
2023-04-08T08:53:56.058Z,14.07
2023-04-08T08:56:23.200Z,13.65
2023-04-08T08:58:50.556Z,13.23
2023-04-08T09:01:31.944Z,15.35
2023-04-08T09:04:09.871Z,12.50
2023-04-08T09:06:37.806Z,13.00
2023-04-08T09:09:11.600Z,13.38
2023-04-08T09:11:43.898Z,14.35
2023-04-08T09:14:25.023Z,15.52
2023-04-08T09:16:52.951Z,13.65
2023-04-08T09:19:20.785Z,14.52
2023-04-08T09:22:08.152Z,15.43
2023-04-08T09:24:37.354Z,12.95
2023-04-08T09:27:05.114Z,12.95
2023-04-08T09:29:35.244Z,14.20
2023-04-08T09:32:04.678Z,14.23
2023-04-08T09:34:34.274Z,14.75
2023-04-08T09:37:01.945Z,13.68
2023-04-08T09:39:30.649Z,14.77
2023-04-08T09:42:01.422Z,17.42
2023-04-08T09:44:30.525Z,14.23
2023-04-08T09:47:25.003Z,13.57
2023-04-08T09:49:58.551Z,13.32
2023-04-08T09:52:40.741Z,16.00
2023-04-08T09:55:13.371Z,18.42
2023-04-08T09:57:44.625Z,13.98
2023-04-08T10:00:15.486Z,12.57
2023-04-08T10:03:04.916Z,14.85
2023-04-08T10:05:33.423Z,18.95
2023-04-08T10:08:00.632Z,17.90
2023-04-08T10:10:28.265Z,20.13
2023-04-08T10:12:56.043Z,18.33
2023-04-08T10:15:31.363Z,19.05
2023-04-08T10:18:04.756Z,16.00
2023-04-08T10:20:35.963Z,15.95
2023-04-08T10:23:04.450Z,14.25
2023-04-08T10:25:36.536Z,14.55
2023-04-08T10:28:17.913Z,14.27
2023-04-08T10:30:55.720Z,13.95
2023-04-08T10:33:30.985Z,13.15
2023-04-08T10:36:12.663Z,13.55
2023-04-08T10:38:42.453Z,15.23
2023-04-08T10:41:21.615Z,12.77
2023-04-08T10:43:51.825Z,13.75
2023-04-08T10:46:19.329Z,13.40
2023-04-08T10:49:01.582Z,15.85
2023-04-08T10:51:34.273Z,16.05
2023-04-08T10:54:16.483Z,15.63
2023-04-08T10:56:53.667Z,12.32
2023-04-08T10:59:34.773Z,12.07
2023-04-08T11:02:02.734Z,12.82
2023-04-08T11:04:30.294Z,11.85
2023-04-08T11:06:58.816Z,13.55
2023-04-08T11:09:25.999Z,12.90
2023-04-08T11:11:53.841Z,13.52
2023-04-08T11:14:22.503Z,13.77
2023-04-08T11:16:50.421Z,14.98
2023-04-08T11:19:18.323Z,15.55
2023-04-08T11:21:46.851Z,14.45
2023-04-08T11:24:14.426Z,14.98
2023-04-08T11:26:42.775Z,15.70
2023-04-08T11:29:14.314Z,11.02
2023-04-08T11:31:44.013Z,13.35
2023-04-08T11:34:11.417Z,13.73
2023-04-08T11:36:41.765Z,13.27
2023-04-08T11:39:34.255Z,13.73
2023-04-08T11:42:01.873Z,12.50
2023-04-08T11:44:33.194Z,11.32
2023-04-08T11:47:02.263Z,12.00
2023-04-08T11:49:44.654Z,11.05
2023-04-08T11:52:12.206Z,9.63
2023-04-08T11:54:42.757Z,11.05
2023-04-08T11:57:10.674Z,10.07
2023-04-08T11:59:37.878Z,12.10
2023-04-08T12:02:06.170Z,14.15
2023-04-08T12:04:34.346Z,11.20
2023-04-08T12:07:02.038Z,10.48
2023-04-08T12:09:29.102Z,10.75
2023-04-08T12:11:57.629Z,11.30
2023-04-08T12:14:27.737Z,10.88
2023-04-08T12:16:55.858Z,9.93
2023-04-08T12:19:22.903Z,9.50
2023-04-08T12:21:50.220Z,9.68
2023-04-08T12:24:17.497Z,10.23
2023-04-08T12:26:44.777Z,9.38
2023-04-08T12:29:11.822Z,10.88
2023-04-08T12:31:39.318Z,7.55
2023-04-08T12:34:07.113Z,8.70
2023-04-08T12:36:34.540Z,9.32
2023-04-08T12:39:01.759Z,8.35
2023-04-08T12:41:29.083Z,9.05
2023-04-08T12:43:56.291Z,9.77
2023-04-08T12:46:23.993Z,8.13
2023-04-08T12:49:02.940Z,8.25
2023-04-08T12:51:32.349Z,8.90
2023-04-08T12:54:00.670Z,7.30
2023-04-08T12:56:28.601Z,7.47
2023-04-08T12:58:58.666Z,8.02
2023-04-08T13:01:26.015Z,7.65
2023-04-08T13:03:55.988Z,7.40
2023-04-08T13:06:23.471Z,7.60
2023-04-08T13:08:50.710Z,7.55
2023-04-08T13:11:18.192Z,6.60
2023-04-08T13:13:46.496Z,5.82
2023-04-08T13:16:15.366Z,6.18
2023-04-08T13:18:47.682Z,6.28
2023-04-08T13:21:15.580Z,5.38
2023-04-08T13:23:42.696Z,5.95
2023-04-08T13:26:10.103Z,6.75
2023-04-08T13:28:49.758Z,6.60
2023-04-08T13:31:23.770Z,6.90
2023-04-08T13:33:51.190Z,5.22
2023-04-08T13:36:18.806Z,4.88
2023-04-08T13:38:46.206Z,5.32
2023-04-08T13:41:13.648Z,6.38
2023-04-08T13:43:41.303Z,5.43
2023-04-08T13:46:09.860Z,5.40
2023-04-08T13:48:42.125Z,5.07
2023-04-08T13:51:10.383Z,6.68
2023-04-08T13:53:37.599Z,7.22
2023-04-08T13:58:57.486Z,5.57
2023-04-08T14:01:25.623Z,5.45
2023-04-08T14:03:52.824Z,5.75
2023-04-08T14:06:20.121Z,5.57
2023-04-08T14:08:47.312Z,6.57
2023-04-08T14:11:14.852Z,4.97
2023-04-08T14:13:41.970Z,5.45
2023-04-08T14:16:09.398Z,6.53
2023-04-08T14:18:36.527Z,5.25
2023-04-08T14:21:05.406Z,8.35
2023-04-08T14:23:32.474Z,5.80
2023-04-08T14:26:01.562Z,6.18
2023-04-08T14:28:28.786Z,7.18
2023-04-08T14:30:56.438Z,5.45
2023-04-08T14:33:23.477Z,6.30
2023-04-08T14:35:53.252Z,7.60
2023-04-08T14:38:21.459Z,7.88
2023-04-08T14:40:48.910Z,6.28
2023-04-08T14:43:16.298Z,6.40
2023-04-08T14:45:45.038Z,6.10
2023-04-08T14:48:12.090Z,5.38
2023-04-08T14:50:39.548Z,6.18
2023-04-08T14:53:06.932Z,5.15
2023-04-08T14:55:36.239Z,7.72
2023-04-08T14:58:03.382Z,6.35
2023-04-08T15:00:30.776Z,6.30
2023-04-08T15:02:57.953Z,7.25
2023-04-08T15:05:26.489Z,5.93
2023-04-08T15:07:54.179Z,6.15
2023-04-08T15:10:21.793Z,6.30
2023-04-08T15:12:48.881Z,7.72
2023-04-08T15:15:16.495Z,6.57
2023-04-08T15:17:43.638Z,6.72
2023-04-08T15:20:11.564Z,7.07
2023-04-08T15:22:38.723Z,6.78
2023-04-08T15:25:07.264Z,8.43
2023-04-08T15:27:34.886Z,5.45
2023-04-08T15:30:02.430Z,5.28
2023-04-08T15:32:29.689Z,12.00
2023-04-08T15:34:57.590Z,5.90
2023-04-08T15:37:24.937Z,7.95
2023-04-08T15:39:53.885Z,13.20
2023-04-08T15:42:22.106Z,7.53
2023-04-08T15:44:49.551Z,5.95
2023-04-08T15:47:16.987Z,7.32
2023-04-08T15:49:44.812Z,7.53
2023-04-08T15:52:11.860Z,6.20
2023-04-08T15:54:39.289Z,8.85
2023-04-08T15:57:06.294Z,8.38
2023-04-08T15:59:33.663Z,10.60
2023-04-08T16:02:00.806Z,10.13
2023-04-08T16:04:28.842Z,6.43
2023-04-08T16:06:55.922Z,7.55
2023-04-08T16:09:26.677Z,6.70
2023-04-08T16:11:54.005Z,7.05
2023-04-08T16:14:21.432Z,7.35
2023-04-08T16:16:49.284Z,7.15
2023-04-08T16:19:16.754Z,8.23
2023-04-08T16:21:44.085Z,6.22
2023-04-08T16:24:11.605Z,6.50
2023-04-08T16:26:38.798Z,8.35
2023-04-08T16:29:07.474Z,8.30
2023-04-08T16:31:34.590Z,7.85
2023-04-08T16:34:02.207Z,9.48
2023-04-08T16:36:29.526Z,9.27
2023-04-08T16:38:56.936Z,11.13
2023-04-08T16:41:24.170Z,12.57
2023-04-08T16:43:51.722Z,12.18
2023-04-08T16:46:19.087Z,12.75
2023-04-08T16:48:46.563Z,10.52
2023-04-08T16:51:19.836Z,50.08
2023-04-08T16:53:47.129Z,12.57
2023-04-08T16:56:15.999Z,16.80
2023-04-08T16:58:43.813Z,14.48
2023-04-08T17:01:14.121Z,14.65
2023-04-08T17:03:41.924Z,12.00
2023-04-08T17:06:10.501Z,11.40
2023-04-08T17:08:38.482Z,12.35
2023-04-08T17:11:07.896Z,12.02
2023-04-08T17:13:35.347Z,14.65
2023-04-08T17:16:02.546Z,11.90
2023-04-08T17:18:29.967Z,13.15
2023-04-08T17:20:57.143Z,14.05
2023-04-08T17:23:24.679Z,15.68
2023-04-08T17:25:54.761Z,17.42
2023-04-08T17:28:22.266Z,16.33
2023-04-08T17:30:50.180Z,16.73
2023-04-08T17:33:17.666Z,24.95
2023-04-08T17:35:47.450Z,17.98
2023-04-08T17:38:14.860Z,22.63
2023-04-08T17:40:42.003Z,24.05
2023-04-08T17:43:09.531Z,22.45
2023-04-08T17:45:36.616Z,20.77
2023-04-08T17:48:06.874Z,13.20
2023-04-08T17:50:36.213Z,10.75
2023-04-08T17:53:04.229Z,13.25
2023-04-08T17:55:31.355Z,15.57
2023-04-08T17:57:59.117Z,27.58
2023-04-08T18:00:27.552Z,27.20
2023-04-08T18:02:55.117Z,24.42
2023-04-08T18:05:22.521Z,29.95
2023-04-08T18:07:51.388Z,34.83
2023-04-08T18:10:18.604Z,54.72
2023-04-08T18:12:46.134Z,75.57
2023-04-08T18:15:16.026Z,65.15
2023-04-08T18:17:43.555Z,75.75
2023-04-08T18:20:13.478Z,65.93
2023-04-08T18:22:40.883Z,60.63
2023-04-08T18:25:09.085Z,57.33
2023-04-08T18:27:36.362Z,64.97
2023-04-08T18:30:03.594Z,65.45
2023-04-08T18:32:30.893Z,51.40
2023-04-08T18:34:58.067Z,51.47
2023-04-08T18:37:25.912Z,47.17
2023-04-08T18:39:53.268Z,62.03
2023-04-08T18:42:20.813Z,75.80
2023-04-08T18:44:47.866Z,75.57
2023-04-08T18:47:15.255Z,90.30
2023-04-08T18:49:42.282Z,80.50
2023-04-08T18:52:16.878Z,69.90
2023-04-08T18:54:44.051Z,61.80
2023-04-08T18:57:11.504Z,64.55
2023-04-08T18:59:38.626Z,75.25
2023-04-08T19:02:06.708Z,85.45
2023-04-08T19:04:34.812Z,97.20
2023-04-08T19:07:02.965Z,114.70
2023-04-08T19:09:31.066Z,102.35
2023-04-08T19:11:58.427Z,101.65
2023-04-08T19:14:25.623Z,107.60
2023-04-08T19:16:53.091Z,113.38
2023-04-08T19:19:20.384Z,124.60
2023-04-08T19:21:48.933Z,154.25
2023-04-08T19:24:16.273Z,150.68
2023-04-08T19:26:43.787Z,148.85
2023-04-08T19:29:11.988Z,139.27
2023-04-08T19:31:39.455Z,128.98
2023-04-08T19:34:06.665Z,114.97
2023-04-08T19:36:34.116Z,119.90
2023-04-08T19:39:01.642Z,94.88
2023-04-08T19:41:29.114Z,81.88
2023-04-08T19:43:56.195Z,65.82
2023-04-08T19:46:29.650Z,62.80
2023-04-08T19:48:58.914Z,54.92
2023-04-08T19:51:27.444Z,47.38
2023-04-08T19:53:55.028Z,55.67
2023-04-08T19:56:22.379Z,48.85
2023-04-08T19:58:49.948Z,47.95
2023-04-08T20:01:18.237Z,48.72
2023-04-08T20:03:50.533Z,43.20
2023-04-08T20:06:19.158Z,48.83
2023-04-08T20:08:46.435Z,44.00
2023-04-08T20:11:13.832Z,45.22
2023-04-08T20:13:41.084Z,48.80
2023-04-08T20:16:08.632Z,51.30
2023-04-08T20:18:35.769Z,52.17
2023-04-08T20:21:03.283Z,50.05
2023-04-08T20:23:31.216Z,52.65
2023-04-08T20:25:59.453Z,49.33
2023-04-08T20:28:26.525Z,53.50
2023-04-08T20:30:54.353Z,53.72
2023-04-08T20:33:21.481Z,47.00
2023-04-08T20:35:50.532Z,54.90
2023-04-08T20:38:17.700Z,50.45
2023-04-08T20:40:45.588Z,48.92
2023-04-08T20:43:12.631Z,49.13
2023-04-08T20:45:40.007Z,49.05
2023-04-08T20:48:07.526Z,45.22
2023-04-08T20:50:35.198Z,44.78
2023-04-08T20:53:02.261Z,46.03
2023-04-08T20:55:29.693Z,40.88
2023-04-08T20:57:56.748Z,45.78
2023-04-08T21:00:24.062Z,47.75
2023-04-08T21:02:51.629Z,46.97
2023-04-08T21:05:19.809Z,42.35
2023-04-08T21:07:46.884Z,47.08
2023-04-08T21:10:14.409Z,47.35
2023-04-08T21:12:41.501Z,48.50
2023-04-08T21:15:09.618Z,51.28
2023-04-08T21:17:37.267Z,47.20
2023-04-08T21:20:05.408Z,51.63
2023-04-08T21:22:32.836Z,51.67
2023-04-08T21:25:00.448Z,57.90
2023-04-08T21:27:29.031Z,52.45
2023-04-08T21:29:56.371Z,51.70
2023-04-08T21:32:23.924Z,49.80
2023-04-08T21:34:54.477Z,47.42
2023-04-08T21:37:22.760Z,45.88
2023-04-08T21:39:50.415Z,49.65
2023-04-08T21:42:17.784Z,51.05
2023-04-08T21:44:45.639Z,49.38
2023-04-08T21:47:12.655Z,52.28
2023-04-08T21:49:39.990Z,53.70
2023-04-08T21:52:07.019Z,45.63
2023-04-08T21:54:34.100Z,49.72
2023-04-08T21:57:01.826Z,46.00
2023-04-08T21:59:28.925Z,44.08
2023-04-08T22:01:56.632Z,43.97
2023-04-08T22:04:23.767Z,36.13
2023-04-08T22:06:51.626Z,35.80
2023-04-08T22:09:19.480Z,33.70
2023-04-08T22:11:46.821Z,34.28
2023-04-08T22:14:14.168Z,33.00
2023-04-08T22:16:41.750Z,34.00
2023-04-08T22:19:10.688Z,36.00
2023-04-08T22:21:38.026Z,29.55
2023-04-08T22:24:05.427Z,31.98
2023-04-08T22:26:33.108Z,34.03
2023-04-08T22:29:00.143Z,46.38
2023-04-08T22:31:27.583Z,41.03
2023-04-08T22:33:54.721Z,45.28
2023-04-08T22:36:22.127Z,45.22
2023-04-08T22:38:49.483Z,38.35
2023-04-08T22:41:21.736Z,36.50
2023-04-08T22:43:50.312Z,31.05
2023-04-08T22:46:18.602Z,32.72
2023-04-08T22:48:46.643Z,31.45
2023-04-08T22:51:14.008Z,29.25
2023-04-08T22:53:41.246Z,31.40
2023-04-08T22:56:08.657Z,30.02
2023-04-08T22:58:35.727Z,26.35
2023-04-08T23:01:11.080Z,26.33
2023-04-08T23:03:38.191Z,23.63
2023-04-08T23:06:05.939Z,26.20
2023-04-08T23:08:33.024Z,26.73
2023-04-08T23:11:00.496Z,26.10
2023-04-08T23:13:28.376Z,23.85
2023-04-08T23:15:55.916Z,25.63
2023-04-08T23:18:23.124Z,22.88
2023-04-08T23:20:57.495Z,24.05
2023-04-08T23:23:25.414Z,23.80
2023-04-08T23:25:55.558Z,24.90
2023-04-08T23:28:23.461Z,24.23
2023-04-08T23:30:52.866Z,24.65
2023-04-08T23:33:20.018Z,26.25
2023-04-08T23:35:47.451Z,21.80
2023-04-08T23:38:14.529Z,25.05
2023-04-08T23:40:42.205Z,25.23
2023-04-08T23:43:09.299Z,27.45
2023-04-08T23:45:36.802Z,25.65
2023-04-08T23:48:04.170Z,24.88
2023-04-08T23:50:31.621Z,22.88
2023-04-08T23:52:59.175Z,24.23
2023-04-08T23:55:26.566Z,22.40
2023-04-08T23:57:53.836Z,24.90
